Time;durP1;ratioP1;P1;durP2;ratioP2;P2;SDS_P1;SDS_P2;PMS_P1;PMS_P2;Temp;Humidity;BMP_temperature;BMP_pressure;BME280_temperature;BME280_humidity;BME280_pressure;Samples;Min_cycle;Max_cycle;Signal;HPM_P1;HPM_P2
2022/08/23 00:01:53;;;;;;;65.45;52.40;;;26.10;57.20;;;;;;4940874;28;91728;-55
2022/08/23 00:04:28;;;;;;;65.13;52.58;;;26.10;57.20;;;;;;4930289;28;91124;-55
2022/08/23 00:06:55;;;;;;;64.82;52.50;;;26.10;57.20;;;;;;4928873;28;91717;-55
2022/08/23 00:09:23;;;;;;;65.32;52.42;;;26.10;57.80;;;;;;4928721;28;90033;-52
2022/08/23 00:12:04;;;;;;;63.63;52.33;;;26.00;57.20;;;;;;4935168;28;90006;-51
2022/08/23 00:14:33;;;;;;;63.42;51.97;;;26.10;57.30;;;;;;4934364;28;89829;-55
2022/08/23 00:16:59;;;;;;;64.07;52.13;;;26.00;57.20;;;;;;4923277;28;91257;-55
2022/08/23 00:19:26;;;;;;;64.80;52.58;;;26.00;57.30;;;;;;4925136;28;89371;-54
2022/08/23 00:21:53;;;;;;;64.57;52.58;;;26.00;57.30;;;;;;4925589;28;91431;-50
2022/08/23 00:24:21;;;;;;;65.30;52.38;;;26.10;57.40;;;;;;4928422;28;90561;-55
2022/08/23 00:27:06;;;;;;;63.88;52.22;;;26.00;57.30;;;;;;4920428;28;91458;-51
2022/08/23 00:29:45;;;;;;;65.35;52.42;;;26.00;57.40;;;;;;4927156;28;90462;-53
2022/08/23 00:32:19;;;;;;;64.32;52.15;;;26.00;57.50;;;;;;4929813;28;91063;-54
2022/08/23 00:34:46;;;;;;;63.10;52.05;;;26.00;57.50;;;;;;4926725;28;91170;-56
2022/08/23 00:37:12;;;;;;;64.60;52.38;;;26.00;57.50;;;;;;4930209;28;95303;-55
2022/08/23 00:39:39;;;;;;;64.68;52.00;;;26.00;57.60;;;;;;4922652;28;89941;-54
2022/08/23 00:47:53;;;;;;;65.13;51.88;;;25.90;57.70;;;;;;4925490;28;91014;-55
2022/08/23 00:50:33;;;;;;;64.57;52.28;;;25.90;57.60;;;;;;4931790;28;90640;-54
2022/08/23 00:53:10;;;;;;;63.75;51.85;;;25.90;57.70;;;;;;4935064;28;90841;-53
2022/08/23 00:55:37;;;;;;;64.70;52.42;;;25.90;57.70;;;;;;4929323;28;90939;-56
2022/08/23 00:58:03;;;;;;;65.07;52.38;;;25.90;57.70;;;;;;4924970;28;96876;-55
2022/08/23 01:00:31;;;;;;;65.20;52.33;;;25.90;57.80;;;;;;4929511;28;93018;-56
2022/08/23 01:02:57;;;;;;;64.80;52.00;;;25.80;57.80;;;;;;4931138;28;92166;-55
2022/08/23 01:05:31;;;;;;;63.78;52.35;;;25.80;57.90;;;;;;4928729;28;90130;-51
2022/08/23 01:07:58;;;;;;;64.75;52.08;;;25.80;58.00;;;;;;4925950;28;89883;-54
2022/08/23 01:10:42;;;;;;;65.03;52.15;;;25.80;58.00;;;;;;4929530;28;91021;-55
2022/08/23 01:13:31;;;;;;;65.05;51.95;;;25.80;58.00;;;;;;4926312;28;93089;-54
2022/08/23 01:16:06;;;;;;;64.07;51.85;;;25.80;58.00;;;;;;4932046;28;90034;-52
2022/08/23 01:18:32;;;;;;;63.67;52.00;;;25.80;58.00;;;;;;4929294;28;97633;-52
2022/08/23 01:21:19;;;;;;;64.65;51.65;;;25.80;58.10;;;;;;4928929;28;89516;-54
2022/08/23 01:24:05;;;;;;;62.92;51.72;;;25.70;58.10;;;;;;4929669;28;90625;-56
2022/08/23 01:26:34;;;;;;;65.68;52.03;;;25.70;58.10;;;;;;4926248;28;92004;-54
2022/08/23 01:29:03;;;;;;;64.45;51.92;;;25.70;58.10;;;;;;4928128;28;90130;-56
2022/08/23 01:31:29;;;;;;;64.82;52.03;;;25.70;58.10;;;;;;4920828;28;90043;-51
2022/08/23 01:34:02;;;;;;;64.25;52.13;;;25.70;58.20;;;;;;4936952;28;90922;-54
2022/08/23 01:36:28;;;;;;;63.13;52.13;;;25.70;58.20;;;;;;4936225;28;89872;-55
2022/08/23 01:38:54;;;;;;;64.03;52.00;;;25.60;58.20;;;;;;4926833;28;89945;-54
2022/08/23 01:41:20;;;;;;;65.05;52.25;;;25.60;58.30;;;;;;4917102;28;90078;-51
2022/08/23 01:43:45;;;;;;;64.28;51.88;;;25.60;58.30;;;;;;4935107;28;96727;-54
2022/08/23 01:46:16;;;;;;;63.08;52.03;;;25.60;58.30;;;;;;4925480;28;90873;-56
2022/08/23 01:48:44;;;;;;;64.70;51.95;;;25.60;58.30;;;;;;4933656;28;92631;-53
2022/08/23 01:51:10;;;;;;;63.88;51.88;;;25.60;58.30;;;;;;4927540;28;92086;-54
2022/08/23 01:53:36;;;;;;;63.65;52.05;;;25.60;58.40;;;;;;4937404;28;90391;-54
2022/08/23 01:56:03;;;;;;;63.72;51.97;;;25.60;58.40;;;;;;4924343;28;90582;-52
2022/08/23 01:58:30;;;;;;;65.82;52.05;;;25.60;58.50;;;;;;4934786;28;89634;-56
2022/08/23 02:00:56;;;;;;;65.60;52.17;;;25.60;58.50;;;;;;4931561;28;91712;-51
2022/08/23 02:03:22;;;;;;;64.13;51.85;;;25.60;58.50;;;;;;4927882;28;92282;-55
2022/08/23 02:05:47;;;;;;;64.15;51.42;;;25.50;58.50;;;;;;4936751;28;90989;-55
2022/08/23 02:10:58;;;;;;;64.45;51.88;;;25.50;58.50;;;;;;4922023;28;89929;-54
2022/08/23 02:13:24;;;;;;;65.38;51.75;;;25.50;58.60;;;;;;4933870;28;89862;-52
2022/08/23 02:15:51;;;;;;;63.80;51.70;;;25.50;58.60;;;;;;4928470;28;90005;-50
2022/08/23 02:18:19;;;;;;;63.42;51.78;;;25.50;59.30;;;;;;4929995;28;97334;-54
2022/08/23 02:20:47;;;;;;;64.40;51.70;;;25.40;58.70;;;;;;4925894;28;94877;-53
2022/08/23 02:23:13;;;;;;;63.33;51.63;;;25.40;58.70;;;;;;4933197;28;89995;-52
2022/08/23 02:25:39;;;;;;;63.15;51.90;;;25.40;58.70;;;;;;4930024;28;89652;-53
2022/08/23 02:28:05;;;;;;;65.88;52.05;;;25.40;58.70;;;;;;4931516;28;91009;-52
2022/08/23 02:30:31;;;;;;;62.72;51.67;;;25.40;58.70;;;;;;4930479;28;89748;-55
2022/08/23 02:32:57;;;;;;;63.78;51.90;;;25.40;58.80;;;;;;4927993;28;92513;-52
2022/08/23 02:35:23;;;;;;;63.05;51.97;;;25.40;58.80;;;;;;4930629;28;90546;-53
2022/08/23 02:37:49;;;;;;;63.92;51.72;;;25.40;58.80;;;;;;4929795;28;90487;-53
2022/08/23 02:40:14;;;;;;;65.47;52.15;;;25.40;58.80;;;;;;4925990;28;89589;-51
2022/08/23 02:42:40;;;;;;;63.33;51.83;;;25.40;58.90;;;;;;4941536;28;90334;-54
2022/08/23 02:45:07;;;;;;;62.38;51.35;;;25.40;58.90;;;;;;4929863;28;89779;-53
2022/08/23 02:47:35;;;;;;;62.90;51.70;;;25.40;58.90;;;;;;4926691;28;91222;-55
2022/08/23 02:50:03;;;;;;;63.42;51.45;;;25.30;58.80;;;;;;4933525;28;89818;-53
2022/08/23 02:52:28;;;;;;;63.40;51.80;;;25.30;58.80;;;;;;4934497;28;90060;-53
2022/08/23 02:54:54;;;;;;;63.22;51.65;;;25.30;58.80;;;;;;4934672;28;90541;-56
2022/08/23 02:57:20;;;;;;;63.42;51.42;;;25.30;58.70;;;;;;4938257;28;90978;-56
2022/08/23 02:59:45;;;;;;;63.28;51.78;;;25.20;58.70;;;;;;4939016;28;90078;-54
2022/08/23 03:02:11;;;;;;;61.92;51.28;;;25.20;58.90;;;;;;4936565;28;89908;-56
2022/08/23 03:04:37;;;;;;;62.22;51.50;;;25.20;59.00;;;;;;4935196;28;90925;-53
2022/08/23 03:07:03;;;;;;;62.00;51.53;;;25.20;58.90;;;;;;4922920;28;89770;-53
2022/08/23 03:09:28;;;;;;;63.00;51.80;;;25.20;59.00;;;;;;4926004;28;90950;-55
2022/08/23 03:11:54;;;;;;;63.20;51.42;;;25.20;59.00;;;;;;4927217;28;96209;-56
2022/08/23 03:14:20;;;;;;;64.30;52.03;;;25.20;59.00;;;;;;4931114;28;88819;-55
2022/08/23 03:16:46;;;;;;;62.92;51.60;;;25.20;59.00;;;;;;4928495;28;90507;-52
2022/08/23 03:19:11;;;;;;;62.58;51.88;;;25.20;59.00;;;;;;4926087;28;97024;-54
2022/08/23 03:21:37;;;;;;;62.97;51.67;;;25.20;59.10;;;;;;4932687;28;97694;-52
2022/08/23 03:24:03;;;;;;;63.88;51.88;;;25.20;59.00;;;;;;4928684;28;90768;-52
2022/08/23 03:26:29;;;;;;;64.43;51.63;;;25.20;59.10;;;;;;4930932;28;89855;-54
2022/08/23 03:28:55;;;;;;;63.13;51.30;;;25.20;59.00;;;;;;4927870;28;92182;-54
2022/08/23 03:31:20;;;;;;;63.60;51.92;;;25.20;59.00;;;;;;4929522;28;89610;-51
2022/08/23 03:33:46;;;;;;;63.63;51.70;;;25.20;59.10;;;;;;4933799;28;89382;-50
2022/08/23 03:36:12;;;;;;;62.80;51.90;;;25.20;59.20;;;;;;4923075;28;92950;-53
2022/08/23 03:38:39;;;;;;;62.95;51.45;;;25.20;59.10;;;;;;4932149;28;89232;-53
2022/08/23 03:41:06;;;;;;;62.28;51.40;;;25.20;59.10;;;;;;4928082;28;90092;-52
2022/08/23 03:43:31;;;;;;;62.92;51.67;;;25.20;59.10;;;;;;4932182;28;94563;-52
2022/08/23 03:45:57;;;;;;;63.83;51.83;;;25.10;59.00;;;;;;4921168;28;91028;-56
2022/08/23 03:48:23;;;;;;;62.58;51.40;;;25.20;59.10;;;;;;4928945;28;90279;-54
2022/08/23 03:50:49;;;;;;;62.78;51.47;;;25.10;59.20;;;;;;4930194;28;94767;-55
2022/08/23 03:53:15;;;;;;;63.10;51.65;;;25.10;59.20;;;;;;4929309;28;90479;-53
2022/08/23 03:55:42;;;;;;;62.63;51.75;;;25.10;59.20;;;;;;4927235;28;91683;-53
2022/08/23 03:58:08;;;;;;;63.42;51.88;;;25.10;59.20;;;;;;4924863;28;89806;-54
2022/08/23 04:00:34;;;;;;;63.00;51.35;;;25.10;59.10;;;;;;4923669;28;90012;-53
2022/08/23 04:02:59;;;;;;;62.75;51.67;;;25.10;59.80;;;;;;4909524;28;91201;-56
2022/08/23 04:05:25;;;;;;;63.50;51.65;;;25.10;59.10;;;;;;4923665;28;90580;-54
2022/08/23 04:07:51;;;;;;;62.70;51.60;;;25.10;59.30;;;;;;4926239;28;93230;-51
2022/08/23 04:10:17;;;;;;;62.80;51.42;;;25.00;59.40;;;;;;4920511;28;93487;-54
2022/08/23 04:12:44;;;;;;;62.95;51.60;;;25.00;59.40;;;;;;4925163;28;91386;-55
2022/08/23 04:15:10;;;;;;;62.33;51.38;;;25.00;59.30;;;;;;4918648;28;90149;-54
2022/08/23 04:17:36;;;;;;;63.83;52.15;;;25.00;59.30;;;;;;4924952;28;93547;-55
2022/08/23 04:20:04;;;;;;;63.25;51.40;;;25.00;59.30;;;;;;4924399;28;90181;-54
2022/08/23 04:22:30;;;;;;;63.47;51.95;;;25.00;59.20;;;;;;4930539;28;89559;-53
2022/08/23 04:24:56;;;;;;;64.97;51.78;;;25.00;59.20;;;;;;4935341;28;89653;-55
2022/08/23 04:27:22;;;;;;;64.53;51.70;;;25.00;59.30;;;;;;4931918;28;89069;-52
2022/08/23 04:29:47;;;;;;;64.65;51.92;;;25.00;59.90;;;;;;4935505;28;89844;-54
2022/08/23 04:32:14;;;;;;;65.35;51.58;;;25.00;59.30;;;;;;4924792;28;90404;-54
2022/08/23 04:34:41;;;;;;;62.80;51.70;;;25.00;59.20;;;;;;4935891;28;91608;-52
2022/08/23 04:37:10;;;;;;;63.67;51.70;;;25.00;59.20;;;;;;4931371;28;95293;-54
2022/08/23 04:42:23;;;;;;;63.67;51.47;;;25.00;59.30;;;;;;4934107;28;89760;-56
2022/08/23 04:44:49;;;;;;;62.47;51.55;;;25.00;59.30;;;;;;4933425;28;89398;-53
2022/08/23 04:47:16;;;;;;;61.72;51.33;;;25.00;59.30;;;;;;4939040;28;89376;-52
2022/08/23 04:49:42;;;;;;;62.28;51.40;;;25.00;59.40;;;;;;4946141;28;89874;-55
2022/08/23 04:52:07;;;;;;;62.63;51.53;;;25.00;59.40;;;;;;4937793;28;88857;-54
2022/08/23 04:54:33;;;;;;;62.38;51.42;;;25.00;59.40;;;;;;4933644;28;89704;-51
2022/08/23 04:56:59;;;;;;;63.47;51.50;;;24.90;59.40;;;;;;4932810;28;89511;-53
2022/08/23 04:59:24;;;;;;;63.80;51.95;;;24.90;59.40;;;;;;4936089;28;96419;-55
2022/08/23 05:01:50;;;;;;;62.97;51.95;;;24.90;59.40;;;;;;4931613;28;89588;-52
2022/08/23 05:04:16;;;;;;;63.08;51.63;;;24.90;59.50;;;;;;4940267;28;89629;-54
2022/08/23 05:06:42;;;;;;;63.05;51.90;;;24.90;59.40;;;;;;4934217;28;96328;-54
2022/08/23 05:09:08;;;;;;;65.80;51.92;;;24.90;59.40;;;;;;4929466;28;89441;-53
2022/08/23 05:11:34;;;;;;;62.97;52.00;;;24.90;59.40;;;;;;4931284;28;89830;-56
2022/08/23 05:13:59;;;;;;;65.80;51.72;;;24.90;59.40;;;;;;4925887;28;89547;-53
2022/08/23 05:16:25;;;;;;;64.40;51.92;;;24.90;59.50;;;;;;4924986;28;89320;-54
2022/08/23 05:18:51;;;;;;;63.75;51.70;;;24.90;59.50;;;;;;4930711;28;90902;-55
2022/08/23 05:21:20;;;;;;;64.05;52.03;;;24.90;59.50;;;;;;4934455;28;90269;-52
2022/08/23 05:23:46;;;;;;;62.65;51.53;;;24.90;59.50;;;;;;4927609;28;91369;-52
2022/08/23 05:26:12;;;;;;;63.47;51.80;;;24.90;59.50;;;;;;4931927;28;89536;-53
2022/08/23 05:28:42;;;;;;;63.22;51.90;;;24.90;59.50;;;;;;4931333;28;89567;-53
2022/08/23 05:31:15;;;;;;;66.13;51.63;;;24.90;59.40;;;;;;4934560;28;89975;-55
2022/08/23 05:33:42;;;;;;;64.35;52.22;;;24.90;59.50;;;;;;4932651;28;90299;-55
2022/08/23 05:36:10;;;;;;;64.25;51.42;;;24.90;59.40;;;;;;4926400;28;91829;-54
2022/08/23 05:38:36;;;;;;;64.47;51.97;;;24.90;59.50;;;;;;4934008;28;91348;-55
2022/08/23 05:41:03;;;;;;;66.35;51.92;;;24.90;59.50;;;;;;4931904;28;89597;-51
2022/08/23 05:43:30;;;;;;;63.08;52.15;;;24.90;59.50;;;;;;4926196;28;90248;-56
2022/08/23 05:46:09;;;;;;;63.50;51.92;;;24.90;59.60;;;;;;4934030;28;89914;-56
2022/08/23 05:48:35;;;;;;;63.45;51.92;;;24.90;59.70;;;;;;4917086;28;91943;-55
2022/08/23 05:51:19;;;;;;;63.38;51.75;;;24.90;59.80;;;;;;4931732;28;89854;-53
2022/08/23 05:53:46;;;;;;;65.47;52.00;;;24.80;59.10;;;;;;4930792;28;90288;-52
2022/08/23 05:56:25;;;;;;;66.35;52.17;;;24.90;59.20;;;;;;4933185;28;89549;-55
2022/08/23 05:58:54;;;;;;;65.57;52.05;;;24.90;59.30;;;;;;4932992;28;90480;-53
2022/08/23 06:01:20;;;;;;;66.57;52.45;;;24.90;59.50;;;;;;4925781;28;90995;-54
2022/08/23 06:03:47;;;;;;;63.10;51.60;;;24.80;59.60;;;;;;4932794;28;94129;-54
2022/08/23 06:06:14;;;;;;;63.53;51.83;;;24.90;59.60;;;;;;4933044;28;89062;-56
2022/08/23 06:08:41;;;;;;;62.97;51.67;;;24.90;59.60;;;;;;4919639;28;91476;-54
2022/08/23 06:11:10;;;;;;;67.28;51.83;;;24.90;59.50;;;;;;4934021;28;93101;-55
2022/08/23 06:13:45;;;;;;;62.97;51.20;;;24.90;59.50;;;;;;4933478;28;90852;-52
2022/08/23 06:16:12;;;;;;;67.28;52.40;;;25.00;59.50;;;;;;4923254;28;90928;-53
2022/08/23 06:18:38;;;;;;;64.63;52.42;;;25.00;59.60;;;;;;4925297;28;90056;-54
2022/08/23 06:21:07;;;;;;;65.72;52.33;;;25.00;59.90;;;;;;4926476;28;92347;-56
2022/08/23 06:23:34;;;;;;;66.97;52.42;;;25.00;59.80;;;;;;4927235;28;92376;-56
2022/08/23 06:26:00;;;;;;;67.05;52.42;;;25.00;59.70;;;;;;4927480;28;95811;-54
2022/08/23 06:28:28;;;;;;;67.45;52.58;;;25.00;59.50;;;;;;4927875;28;90111;-55
2022/08/23 06:30:55;;;;;;;64.38;52.65;;;25.10;59.50;;;;;;4929197;28;89849;-52
2022/08/23 06:33:22;;;;;;;66.45;52.20;;;25.10;59.50;;;;;;4932629;28;89955;-56
2022/08/23 06:35:49;;;;;;;63.92;52.15;;;25.10;59.60;;;;;;4927159;28;89744;-56
2022/08/23 06:38:16;;;;;;;68.82;52.58;;;25.10;59.50;;;;;;4927664;28;95032;-54
2022/08/23 06:40:42;;;;;;;66.30;52.20;;;25.10;59.30;;;;;;4930749;28;91162;-55
2022/08/23 06:43:08;;;;;;;64.68;52.40;;;25.10;59.20;;;;;;4937253;28;89474;-56
2022/08/23 06:45:33;;;;;;;63.70;52.10;;;25.10;59.00;;;;;;4923908;28;96716;-53
2022/08/23 06:47:59;;;;;;;65.55;52.00;;;25.10;58.90;;;;;;4946747;28;90163;-56
2022/08/23 06:50:25;;;;;;;63.28;52.10;;;25.10;58.70;;;;;;4931684;28;94151;-52
2022/08/23 06:52:51;;;;;;;66.20;52.28;;;25.20;58.80;;;;;;4933943;28;89597;-55
2022/08/23 06:55:17;;;;;;;63.55;52.05;;;25.20;58.70;;;;;;4932042;28;90323;-56
2022/08/23 06:57:44;;;;;;;63.20;51.95;;;25.20;58.60;;;;;;4925985;28;91812;-54
2022/08/23 07:00:11;;;;;;;66.63;51.90;;;25.20;58.60;;;;;;4936715;28;90430;-56
2022/08/23 07:02:37;;;;;;;65.28;52.03;;;25.20;58.50;;;;;;4933438;28;90471;-53
2022/08/23 07:05:03;;;;;;;62.92;51.78;;;25.30;58.40;;;;;;4930032;28;91818;-55
2022/08/23 07:07:29;;;;;;;63.28;51.88;;;25.30;58.30;;;;;;4927188;28;91475;-54
2022/08/23 07:09:55;;;;;;;64.38;52.40;;;25.30;58.30;;;;;;4936724;28;91131;-56
2022/08/23 07:12:21;;;;;;;64.20;52.08;;;25.40;58.20;;;;;;4929717;28;89676;-54
2022/08/23 07:14:48;;;;;;;64.10;51.85;;;25.40;58.20;;;;;;4930719;28;90127;-56
2022/08/23 07:17:14;;;;;;;66.13;51.95;;;25.40;58.20;;;;;;4932662;28;90587;-52
2022/08/23 07:19:42;;;;;;;65.32;51.88;;;25.40;58.10;;;;;;4931382;28;91059;-52
2022/08/23 07:22:09;;;;;;;64.07;52.08;;;25.40;58.10;;;;;;4928722;28;89829;-53
2022/08/23 07:24:36;;;;;;;64.93;51.60;;;25.40;58.00;;;;;;4931802;28;94178;-54
2022/08/23 07:27:05;;;;;;;63.05;51.53;;;25.40;57.90;;;;;;4932839;28;91459;-55
2022/08/23 07:29:31;;;;;;;65.47;51.80;;;25.50;58.20;;;;;;4929747;28;91591;-52
2022/08/23 07:31:57;;;;;;;63.03;51.70;;;25.50;58.00;;;;;;4925173;28;89630;-54
2022/08/23 07:34:23;;;;;;;63.67;51.80;;;25.60;57.90;;;;;;4940921;28;89834;-56
2022/08/23 07:36:51;;;;;;;63.97;51.80;;;25.60;57.70;;;;;;4935067;28;90261;-52
2022/08/23 07:39:17;;;;;;;63.70;51.92;;;25.50;58.00;;;;;;4936713;28;91053;-54
2022/08/23 07:41:44;;;;;;;66.03;52.05;;;25.60;58.00;;;;;;4931443;28;89463;-52
2022/08/23 07:44:11;;;;;;;64.55;51.80;;;25.60;58.00;;;;;;4939510;28;89151;-52
2022/08/23 07:46:39;;;;;;;63.85;52.10;;;25.60;58.10;;;;;;4936310;28;90867;-54
2022/08/23 07:49:05;;;;;;;64.25;52.15;;;25.60;58.00;;;;;;4931956;28;89469;-53
2022/08/23 07:51:32;;;;;;;63.50;51.78;;;25.60;58.10;;;;;;4924546;28;92257;-54
2022/08/23 07:54:00;;;;;;;64.95;51.97;;;25.70;58.60;;;;;;4936210;28;90329;-53
2022/08/23 07:56:25;;;;;;;63.75;51.83;;;25.70;57.90;;;;;;4923912;28;89351;-54
2022/08/23 07:58:51;;;;;;;64.97;52.35;;;25.80;57.80;;;;;;4933828;28;90240;-52
2022/08/23 08:01:21;;;;;;;64.03;51.95;;;25.80;57.80;;;;;;4922646;28;93238;-51
2022/08/23 08:03:49;;;;;;;63.15;51.80;;;25.80;57.80;;;;;;4935114;28;90368;-56
2022/08/23 08:06:23;;;;;;;63.60;51.70;;;25.80;58.00;;;;;;4925084;28;90073;-54
2022/08/23 08:08:50;;;;;;;63.63;52.10;;;25.90;57.80;;;;;;4930749;28;89510;-52
2022/08/23 08:11:19;;;;;;;65.47;52.40;;;25.90;57.80;;;;;;4926215;28;89954;-50
2022/08/23 08:13:47;;;;;;;62.70;51.85;;;26.00;57.80;;;;;;4936996;28;90357;-54
2022/08/23 08:16:28;;;;;;;65.05;52.15;;;26.00;57.50;;;;;;4923715;28;93501;-54
2022/08/23 08:18:56;;;;;;;63.80;52.17;;;26.00;57.70;;;;;;4928976;28;94153;-53
2022/08/23 08:21:22;;;;;;;64.88;52.17;;;26.00;57.80;;;;;;4930468;28;94350;-54
2022/08/23 08:23:48;;;;;;;63.45;51.72;;;26.00;57.80;;;;;;4931202;28;89525;-54
2022/08/23 08:26:15;;;;;;;63.78;52.15;;;26.00;57.70;;;;;;4932825;28;97296;-54
2022/08/23 08:28:41;;;;;;;62.85;52.03;;;26.10;57.60;;;;;;4933212;28;89931;-55
2022/08/23 08:31:07;;;;;;;64.22;51.92;;;26.20;57.60;;;;;;4929893;28;93052;-51
2022/08/23 08:33:33;;;;;;;64.47;52.10;;;26.20;57.40;;;;;;4937487;28;88736;-54
2022/08/23 08:35:59;;;;;;;63.83;52.00;;;26.20;57.30;;;;;;4930995;28;90119;-56
2022/08/23 08:38:25;;;;;;;64.97;52.17;;;26.30;57.30;;;;;;4934796;28;90794;-56
2022/08/23 08:41:18;;;;;;;63.28;51.70;;;26.30;57.30;;;;;;4942463;28;91756;-53
2022/08/23 08:44:14;;;;;;;63.65;51.88;;;26.30;57.20;;;;;;4933793;28;89631;-56
2022/08/23 08:46:49;;;;;;;63.63;51.83;;;26.40;57.20;;;;;;4923279;28;89711;-54
2022/08/23 08:49:39;;;;;;;64.32;52.28;;;26.30;57.10;;;;;;4932980;28;91535;-54
2022/08/23 08:52:22;;;;;;;63.38;51.90;;;26.40;57.10;;;;;;4926827;28;95053;-56
2022/08/23 08:54:49;;;;;;;64.70;52.30;;;26.40;57.00;;;;;;4934618;28;89651;-56
2022/08/23 08:57:19;;;;;;;63.75;51.83;;;26.40;56.90;;;;;;4937269;28;89603;-56
2022/08/23 08:59:50;;;;;;;65.00;51.92;;;26.40;56.90;;;;;;4938241;28;90533;-54
2022/08/23 09:02:19;;;;;;;64.72;51.85;;;26.50;57.00;;;;;;4919477;28;96058;-54
2022/08/23 09:04:46;;;;;;;63.47;52.33;;;26.50;57.00;;;;;;4932207;28;90402;-56
2022/08/23 09:07:28;;;;;;;64.03;52.22;;;26.50;56.90;;;;;;4934945;28;91488;-56
2022/08/23 09:10:11;;;;;;;64.10;52.00;;;26.50;57.00;;;;;;4927462;28;90246;-55
2022/08/23 09:12:40;;;;;;;64.00;52.17;;;26.50;57.10;;;;;;4932063;28;91487;-55
2022/08/23 09:15:19;;;;;;;64.00;51.75;;;26.50;57.40;;;;;;4937713;28;89976;-56
2022/08/23 09:17:57;;;;;;;63.28;52.13;;;26.50;57.60;;;;;;4933031;28;90112;-56
2022/08/23 09:20:27;;;;;;;63.88;51.83;;;26.50;57.50;;;;;;4937118;28;95536;-53
2022/08/23 09:23:11;;;;;;;63.97;52.17;;;26.50;57.40;;;;;;4935081;28;91350;-55
2022/08/23 09:25:37;;;;;;;63.08;52.22;;;26.50;57.30;;;;;;4935609;28;90573;-55
2022/08/23 09:28:03;;;;;;;63.88;51.58;;;26.50;57.30;;;;;;4931403;28;89542;-53
2022/08/23 09:31:04;;;;;;;64.28;52.30;;;26.50;57.30;;;;;;4934822;28;90463;-54
2022/08/23 09:33:41;;;;;;;65.95;52.05;;;26.50;57.30;;;;;;4953322;28;91069;-54
2022/08/23 09:36:25;;;;;;;62.67;51.78;;;26.50;57.60;;;;;;4935575;28;89425;-56
2022/08/23 09:38:55;;;;;;;63.53;51.92;;;26.50;57.50;;;;;;4925532;28;90924;-55
2022/08/23 09:41:27;;;;;;;66.82;52.25;;;26.60;57.40;;;;;;4929044;28;89954;-53
2022/08/23 09:43:54;;;;;;;64.47;52.15;;;26.50;57.80;;;;;;4936010;28;90083;-53
2022/08/23 09:46:29;;;;;;;63.35;52.05;;;26.50;57.70;;;;;;4930351;28;93997;-52
2022/08/23 09:49:00;;;;;;;63.30;52.03;;;26.60;57.40;;;;;;4937389;28;89648;-54
2022/08/23 09:51:31;;;;;;;63.28;52.10;;;26.60;57.50;;;;;;4929413;28;90673;-56
2022/08/23 09:54:08;;;;;;;;;;;26.60;57.80;;;;;;4930586;28;91938;-55
2022/08/23 09:56:46;;;;;;;64.40;52.22;;;26.60;57.50;;;;;;4927666;28;89584;-53
2022/08/23 09:59:27;;;;;;;63.78;52.03;;;26.60;57.50;;;;;;4925258;28;91295;-51
2022/08/23 10:01:55;;;;;;;64.78;51.97;;;26.60;57.50;;;;;;4925601;28;90717;-55
2022/08/23 10:04:23;;;;;;;64.60;52.33;;;26.60;57.40;;;;;;4928817;28;89473;-55
2022/08/23 10:06:50;;;;;;;64.88;51.95;;;26.70;57.70;;;;;;4931640;28;91328;-54
2022/08/23 10:09:33;;;;;;;63.97;52.17;;;26.70;58.00;;;;;;4925435;28;95247;-54
2022/08/23 10:12:00;;;;;;;89.95;65.47;;;26.70;57.90;;;;;;4925450;28;92209;-50
2022/08/23 10:14:28;;;;;;;111.40;71.00;;;26.70;57.80;;;;;;4927705;28;89798;-52
2022/08/23 10:17:22;;;;;;;106.30;72.55;;;26.70;58.10;;;;;;4934327;28;90469;-52
2022/08/23 10:19:59;;;;;;;92.10;65.43;;;26.70;58.30;;;;;;4931227;28;93148;-56
2022/08/23 10:22:41;;;;;;;82.32;61.08;;;26.70;58.10;;;;;;4931511;28;89784;-54
2022/08/23 10:25:17;;;;;;;79.90;59.55;;;26.80;57.50;;;;;;4941302;28;94627;-56
2022/08/23 10:31:12;;;;;;;72.43;56.63;;;26.80;58.10;;;;;;4936726;28;89484;-56
2022/08/23 10:33:44;;;;;;;69.05;54.50;;;26.80;58.00;;;;;;4945515;28;90528;-51
2022/08/23 10:36:30;;;;;;;68.68;54.00;;;26.80;57.70;;;;;;4936272;28;89465;-53
2022/08/23 10:39:25;;;;;;;67.13;54.17;;;26.90;57.70;;;;;;4938987;28;89952;-54
2022/08/23 10:42:05;;;;;;;67.25;54.03;;;26.90;58.20;;;;;;4929311;28;90251;-55
2022/08/23 10:45:09;;;;;;;66.90;53.75;;;26.90;57.60;;;;;;4931073;28;89384;-56
2022/08/23 10:47:41;;;;;;;68.97;54.35;;;26.90;57.60;;;;;;4937309;28;93301;-55
2022/08/23 10:50:12;;;;;;;67.03;53.92;;;26.90;57.60;;;;;;4932917;28;89935;-55
2022/08/23 10:52:59;;;;;;;69.70;54.30;;;27.00;57.60;;;;;;4951070;28;92446;-53
2022/08/23 10:55:43;;;;;;;67.65;53.90;;;27.00;57.60;;;;;;4930502;28;91007;-56
2022/08/23 10:58:15;;;;;;;68.53;54.50;;;27.00;57.70;;;;;;4927114;28;90241;-54
2022/08/23 11:00:41;;;;;;;70.78;54.85;;;27.00;57.60;;;;;;4938112;28;90035;-55
2022/08/23 11:03:43;;;;;;;69.05;54.10;;;27.00;57.60;;;;;;4940549;28;90179;-54
2022/08/23 11:06:47;;;;;;;69.22;54.25;;;27.00;57.60;;;;;;4940218;28;89871;-56
2022/08/23 11:09:16;;;;;;;67.85;54.40;;;27.00;57.50;;;;;;4931669;28;91862;-53
2022/08/23 11:11:48;;;;;;;67.40;54.28;;;27.00;57.50;;;;;;4931759;28;91249;-54
2022/08/23 11:14:36;;;;;;;67.32;53.97;;;27.10;57.60;;;;;;4930211;28;91633;-55
2022/08/23 11:17:05;;;;;;;68.20;54.30;;;27.10;57.50;;;;;;4937778;28;90197;-55
2022/08/23 11:19:51;;;;;;;68.20;54.30;;;27.10;57.50;;;;;;4933201;28;91148;-56
2022/08/23 11:22:23;;;;;;;69.75;54.38;;;27.10;57.50;;;;;;4934139;28;90772;-56
2022/08/23 11:24:58;;;;;;;68.53;54.45;;;27.10;57.50;;;;;;4930323;28;89531;-55
2022/08/23 11:27:38;;;;;;;67.53;54.40;;;27.10;57.40;;;;;;4933663;28;91936;-56
2022/08/23 11:30:33;;;;;;;67.43;54.22;;;27.10;57.60;;;;;;4932737;28;89741;-55
2022/08/23 11:33:17;;;;;;;67.55;53.83;;;27.20;57.50;;;;;;4934191;28;89722;-54
2022/08/23 11:36:16;;;;;;;68.13;54.25;;;27.20;57.60;;;;;;4941046;28;95036;-53
2022/08/23 11:38:48;;;;;;;66.97;54.25;;;27.20;57.60;;;;;;4933859;28;89921;-54
2022/08/23 11:41:29;;;;;;;67.25;53.88;;;27.20;57.50;;;;;;4937551;28;89637;-54
2022/08/23 11:43:54;;;;;;;;;;;27.20;57.40;;;;;;4940573;28;89602;-56
2022/08/23 11:46:26;;;;;;;66.32;53.63;;;27.20;57.40;;;;;;4933482;28;90451;-56
2022/08/23 11:49:16;;;;;;;65.60;53.78;;;27.30;57.50;;;;;;4924680;28;91019;-55
2022/08/23 11:51:57;;;;;;;68.27;53.87;;;27.30;57.40;;;;;;4935150;28;89657;-55
2022/08/23 11:54:34;;;;;;;66.55;53.90;;;27.30;57.40;;;;;;4934026;28;91385;-55
2022/08/23 11:57:24;;;;;;;67.18;54.20;;;27.30;57.60;;;;;;4944904;28;93211;-55
2022/08/23 11:59:58;;;;;;;66.30;54.13;;;27.30;57.80;;;;;;4929428;28;89773;-54
2022/08/23 12:02:46;;;;;;;68.78;54.03;;;27.30;57.90;;;;;;4936020;28;94216;-52
2022/08/23 12:05:19;;;;;;;67.38;53.75;;;27.20;58.00;;;;;;4939182;28;89731;-51
2022/08/23 12:08:20;;;;;;;67.70;54.05;;;27.10;58.30;;;;;;4932735;28;90355;-50
2022/08/23 12:10:46;;;;;;;67.07;53.58;;;27.00;58.60;;;;;;4932942;28;91178;-50
2022/08/23 12:13:23;;;;;;;66.93;54.13;;;26.90;58.70;;;;;;4936386;28;90856;-53
2022/08/23 12:16:12;;;;;;;67.43;54.05;;;26.90;58.90;;;;;;4928267;28;89712;-53
2022/08/23 12:18:47;;;;;;;67.95;53.90;;;26.90;59.10;;;;;;4936084;28;89922;-51
2022/08/23 12:21:40;;;;;;;66.07;53.53;;;26.80;59.10;;;;;;4935190;28;89580;-50
2022/08/23 12:24:31;;;;;;;67.05;53.90;;;26.80;59.10;;;;;;4936328;28;90532;-49
2022/08/23 12:26:59;;;;;;;70.63;53.90;;;26.80;59.20;;;;;;4931463;28;89927;-52
2022/08/23 12:30:01;;;;;;;67.55;53.53;;;26.80;59.20;;;;;;4934398;28;89789;-51
2022/08/23 12:32:35;;;;;;;65.53;53.53;;;26.80;59.20;;;;;;4932521;28;89747;-51
2022/08/23 12:35:40;;;;;;;66.90;53.85;;;26.80;59.30;;;;;;4937442;28;93719;-51
2022/08/23 12:38:19;;;;;;;65.57;53.53;;;26.80;59.30;;;;;;4937721;28;89895;-53
2022/08/23 12:40:48;;;;;;;66.63;53.72;;;26.80;59.30;;;;;;4935935;28;91417;-52
2022/08/23 12:43:17;;;;;;;67.15;53.50;;;26.80;59.30;;;;;;4937983;28;89974;-50
2022/08/23 12:45:48;;;;;;;65.80;53.47;;;26.70;59.20;;;;;;4938675;28;89881;-53
2022/08/23 12:48:19;;;;;;;66.75;53.60;;;26.80;59.30;;;;;;4938285;28;92956;-52
2022/08/23 12:50:53;;;;;;;67.93;53.80;;;26.80;59.30;;;;;;4926403;28;90725;-53
2022/08/23 12:53:34;;;;;;;66.95;53.47;;;26.70;59.30;;;;;;4936042;28;91730;-52
2022/08/23 12:56:09;;;;;;;66.25;53.55;;;26.80;59.30;;;;;;4935701;28;90064;-50
2022/08/23 12:58:38;;;;;;;66.50;53.45;;;26.80;59.30;;;;;;4940607;28;89041;-50
2022/08/23 13:01:07;;;;;;;67.28;53.65;;;26.80;59.30;;;;;;4935845;28;94001;-53
2022/08/23 13:03:38;;;;;;;66.30;53.17;;;26.80;59.30;;;;;;4934364;28;95713;-53